Flight Track Log - Related Links

Times and Time Zones

All times are in EDT time to prevent confusion due to time zone crossing. See the FSR411 flight status page for this flight to view local times or setup timezone preferences in your user account.

Time Position Orientation Groundspeed Altitude Reporting Facility
EDT Latitude Longitude Course Direction KTS MPH feet Rate Location/Type
Fri 02:36:21 PM 44.7114 -85.5922 204° Southwest 170 196 2,100  Level Chicago Center
Fri 02:37:20 PM 44.6658 -85.6297 210° Southwest 187 215 4,500 2,231 Climbing Minneapolis Center
Fri 02:38:22 PM 44.6031 -85.6733 206° Southwest 224 258 6,600 2,371 Climbing Minneapolis Center
Fri 02:39:24 PM 44.5333 -85.7206 206° Southwest 271 312 9,400 2,710 Climbing Minneapolis Center
Fri 02:39:24 PM 44.5333 -85.7206 206° Southwest 271 312 9,400 2,032 Level Minneapolis Center
Fri 02:40:26 PM 44.4603 -85.7686 205° Southwest 284 327 11,500 1,887 Climbing Minneapolis Center
Fri 02:41:00 PM 44.7373 -85.5845 204° Southwest  Level FlightAware Approximate
Fri 02:41:28 PM 44.3647 -85.8311 205° Southwest 311 358 13,300  Level Minneapolis Center
Fri 02:42:30 PM 44.2797 -85.8867 205° Southwest 328 377 14,600 1,258 Climbing Minneapolis Center
Fri 02:43:32 PM 44.1919 -85.9442 205° Southwest 340 391 15,900 1,296 Climbing Minneapolis Center
Fri 02:44:35 PM 44.0992 -86.0050 205° Southwest 358 412 17,300 1,776 Climbing Minneapolis Center
Fri 02:45:37 PM 43.9939 -86.0756 206° Southwest 406 467 19,600 2,323 Climbing Minneapolis Center
Fri 02:46:39 PM 43.8836 -86.1472 205° Southwest 430 495 22,100 2,468 Climbing Minneapolis Center
Fri 02:47:41 PM 43.7492 -86.2325 205° Southwest 442 509 24,700 2,177 Climbing Minneapolis Center
Fri 02:48:43 PM 43.6353 -86.3064 205° Southwest 451 519 26,600 1,887 Climbing Minneapolis Center
Fri 02:49:45 PM 43.5214 -86.3797 205° Southwest 452 520 28,600 1,872 Climbing Minneapolis Center
Fri 02:50:48 PM 43.4075 -86.4522 205° Southwest 453 521 30,500 2,233 Climbing Minneapolis Center
Fri 02:51:54 PM 43.2761 -86.5364 205° Southwest 449 517 33,400 2,391 Climbing Chicago Center
Fri 02:52:56 PM 43.1742 -86.6022 205° Southwest 417 480 35,600 1,935 Climbing Chicago Center
Fri 02:53:58 PM 43.0747 -86.6642 204° Southwest 399 459 37,400 1,548 Climbing Chicago Center
Fri 02:55:00 PM 42.9781 -86.7253 205° Southwest 389 448 38,800 1,248 Climbing Chicago Center
Fri 02:56:03 PM 42.8639 -86.7967 205° Southwest 382 440 40,000 576 Climbing Chicago Center
Fri 02:57:05 PM 42.7647 -86.8581 204° Southwest 389 448 40,000  Level Chicago Center
Fri 02:58:07 PM 42.6603 -86.9208 204° Southwest 408 470 40,000  Level Chicago Center
Fri 02:59:12 PM 42.5417 -86.9969 205° Southwest 423 487 40,000  Level Chicago Center
Fri 03:00:14 PM 42.4331 -87.0625 204° Southwest 424 488 40,000  Level Chicago Center
Fri 03:01:16 PM 42.3250 -87.1283 204° Southwest 425 489 40,000  Level Chicago Center
Fri 03:02:18 PM 42.1953 -87.2075 204° Southwest 427 491 40,000  Level Chicago Center
Fri 03:03:20 PM 42.0861 -87.2747 205° Southwest 429 494 40,000  Level Chicago Center
Fri 03:04:22 PM 41.9894 -87.3661 215° Southwest 427 491 40,000  Level Chicago Center
Fri 03:05:25 PM 41.8906 -87.4553 214° Southwest 424 488 40,000  Level Chicago Center
Fri 03:06:27 PM 41.7914 -87.5442 214° Southwest 427 491 40,000  Level Chicago Center
Fri 03:07:29 PM 41.6936 -87.6331 214° Southwest 426 490 40,000  Level Chicago Center
Fri 03:08:31 PM 41.5736 -87.7403 214° Southwest 429 494 40,000  Level Chicago Center
Fri 03:09:33 PM 41.4733 -87.8283 213° Southwest 430 495 40,000  Level Chicago Center
Fri 03:10:35 PM 41.3689 -87.9164 212° Southwest 434 499 40,000  Level Chicago Center
Fri 03:11:37 PM 41.2653 -88.0117 215° Southwest 445 512 40,000  Level Chicago Center
Fri 03:12:39 PM 41.1644 -88.1031 214° Southwest 439 505 40,000  Level Chicago Center
Fri 03:13:42 PM 41.0628 -88.1931 214° Southwest 436 502 40,000 -144 Level Chicago Center
Fri 03:14:44 PM 40.9622 -88.2819 214° Southwest 436 502 39,700 -871 Descending Chicago Center
Fri 03:15:46 PM 40.8597 -88.3706 213° Southwest 437 503 38,200 -1,584 Descending Chicago Center
Fri 03:16:49 PM 40.7367 -88.4769 213° Southwest 438 504 36,400 -1,680 Descending Chicago Center
Fri 03:17:51 PM 40.6356 -88.5650 213° Southwest 438 504 34,700 -1,645 Descending Chicago Center
Fri 03:18:53 PM 40.5292 -88.6567 213° Southwest 452 520 33,000 -1,694 Descending Chicago Center
Fri 03:19:55 PM 40.4083 -88.7586 213° Southwest 462 532 31,200 -1,597 Descending Chicago Center
Fri 03:20:57 PM 40.2994 -88.8531 213° Southwest 465 535 29,700 -1,440 Descending Chicago Center
Fri 03:22:00 PM 40.1897 -88.9458 213° Southwest 465 535 28,200 -1,486 Descending Chicago Center
Fri 03:22:42 PM 40.1225 -89.0031 213° Southwest 465 535 27,100 -1,731 Descending Kansas City Center
Fri 03:23:44 PM 40.0117 -89.0964 213° Southwest 468 539 25,200 -1,645 Descending Kansas City Center
Fri 03:24:46 PM 39.8797 -89.2069 213° Southwest 469 540 23,700 -1,210 Descending Kansas City Center
Fri 03:25:48 PM 39.7742 -89.2953 213° Southwest 456 525 22,700 -1,258 Descending Kansas City Center
Fri 03:26:50 PM 39.6781 -89.3769 213° Southwest 446 513 21,100 -1,824 Descending Kansas City Center
Fri 03:27:53 PM 39.5733 -89.4625 212° Southwest 446 513 18,900 -2,352 Descending Kansas City Center
Fri 03:28:55 PM 39.4556 -89.5608 213° Southwest 426 490 16,200 -2,323 Descending Kansas City Center
Fri 03:29:57 PM 39.3661 -89.6347 213° Southwest 391 450 14,100 -1,935 Descending Kansas City Center
Fri 03:30:59 PM 39.2750 -89.7089 212° Southwest 389 448 12,200 -968 Descending Kansas City Center
Fri 03:32:01 PM 39.2006 -89.7944 222° Southwest 366 421 12,100 -194 Descending Kansas City Center
Fri 03:33:03 PM 39.1422 -89.9189 239° Southwest 356 410 11,800 -919 Descending Kansas City Center
Fri 03:34:05 PM 39.0683 -90.0131 225° Southwest 352 405 10,200 -1,500 Descending Kansas City Center
Fri 03:35:07 PM 39.0056 -90.0806 220° Southwest 305 351 8,700 -1,694 Descending Kansas City Center
Fri 03:36:09 PM 38.9472 -90.1444 220° Southwest 282 325 6,700 -1,632 Descending Kansas City Center
Fri 03:37:12 PM 38.8917 -90.2064 221° Southwest 277 319 5,300 -1,200 Descending Kansas City Center
Fri 03:38:14 PM 38.8372 -90.2667 221° Southwest 265 305 4,200 -581 Descending Kansas City Center
Fri 03:39:16 PM 38.7919 -90.3169 221° Southwest 222 255 4,100 -48 Descending Kansas City Center
Fri 03:40:18 PM 38.7419 -90.3764 223° Southwest 209 241 4,100 -290 Level Kansas City Center
Fri 03:41:20 PM 38.7042 -90.4328 229° Southwest 216 249 3,500 -968 Descending Kansas City Center
Fri 03:42:22 PM 38.6822 -90.5072 249° West 232 267 2,100 -968 Descending Kansas City Center
Fri 03:43:24 PM 38.6719 -90.5717 258° West 195 224 1,500 -677 Descending Kansas City Center
Fri 03:44:26 PM 38.6631 -90.6283 259° West 157 181 700 -432 Descending Kansas City Center
Fri 03:45:29 PM 38.6544 -90.6800 258° West 153 176 600 -95 Descending Kansas City Center
Fri 03:47:00 PM 38.6500 -90.6500 90° East  Level FlightAware Approximate

Login

Don't have an account? Register now (free) for customized features, flight alerts, and more!